createdAt,value
2024-02-04T00:00:23.817Z,82
2024-02-04T00:01:30.834Z,82
2024-02-04T00:02:37.401Z,82
2024-02-04T00:03:44.618Z,82
2024-02-04T00:04:51.655Z,82
2024-02-04T00:05:58.748Z,82
2024-02-04T00:07:05.813Z,82
2024-02-04T00:08:12.379Z,82
2024-02-04T00:09:19.678Z,82
2024-02-04T00:10:26.603Z,82
2024-02-04T00:11:33.686Z,83
2024-02-04T00:12:40.806Z,83
2024-02-04T00:13:47.436Z,83
2024-02-04T00:14:54.550Z,83
2024-02-04T00:16:01.741Z,83
2024-02-04T00:17:08.671Z,83
2024-02-04T00:18:15.966Z,83
2024-02-04T00:19:22.442Z,83
2024-02-04T00:20:29.582Z,83
2024-02-04T00:21:36.643Z,84
2024-02-04T00:22:43.771Z,83
2024-02-04T00:23:50.843Z,83
2024-02-04T00:24:57.437Z,84
2024-02-04T00:26:04.569Z,83
2024-02-04T00:28:18.748Z,83
2024-02-04T00:29:25.929Z,83
2024-02-04T00:30:32.405Z,83
2024-02-04T00:31:39.587Z,83
2024-02-04T00:32:46.787Z,83
2024-02-04T00:33:53.895Z,83
2024-02-04T00:35:00.941Z,83
2024-02-04T00:36:07.422Z,83
2024-02-04T00:38:21.605Z,83
2024-02-04T00:39:28.788Z,83
2024-02-04T00:40:38.803Z,83
2024-02-04T00:41:42.434Z,83
2024-02-04T00:42:49.599Z,83
2024-02-04T00:43:56.707Z,83
2024-02-04T00:45:03.752Z,83
2024-02-04T00:46:11.392Z,83
2024-02-04T00:47:17.445Z,83
2024-02-04T00:48:24.782Z,83
2024-02-04T00:49:31.720Z,83
2024-02-04T00:50:38.909Z,83
2024-02-04T00:51:45.407Z,83
2024-02-04T00:52:52.451Z,83
2024-02-04T00:53:59.594Z,83
2024-02-04T00:55:06.666Z,83
2024-02-04T00:56:13.801Z,83
2024-02-04T00:57:20.391Z,82
2024-02-04T00:58:27.639Z,82
2024-02-04T00:59:34.689Z,82
2024-02-04T01:00:41.833Z,82
2024-02-04T01:01:48.885Z,82
2024-02-04T01:02:55.367Z,83
2024-02-04T01:04:02.552Z,83
2024-02-04T01:05:09.618Z,83
2024-02-04T01:06:16.723Z,83
2024-02-04T01:07:23.802Z,83
2024-02-04T01:08:33.899Z,83
2024-02-04T01:09:37.495Z,83
2024-02-04T01:10:44.562Z,83
2024-02-04T01:11:51.657Z,83
2024-02-04T01:12:58.935Z,83
2024-02-04T01:14:05.911Z,83
2024-02-04T01:15:12.461Z,83
2024-02-04T01:16:19.641Z,83
2024-02-04T01:17:26.762Z,82
2024-02-04T01:18:34.006Z,82
2024-02-04T01:19:40.594Z,82
2024-02-04T01:20:47.572Z,82
2024-02-04T01:21:54.663Z,82
2024-02-04T01:23:01.675Z,82
2024-02-04T01:24:08.879Z,82
2024-02-04T01:25:15.379Z,82
2024-02-04T01:26:22.490Z,82
2024-02-04T01:27:29.637Z,82
2024-02-04T01:28:36.714Z,82
2024-02-04T01:29:44.165Z,82
2024-02-04T01:31:57.540Z,82
2024-02-04T01:33:04.684Z,82
2024-02-04T01:34:11.791Z,82
2024-02-04T01:35:18.852Z,82
2024-02-04T01:36:25.462Z,82
2024-02-04T01:37:32.477Z,82
2024-02-04T01:38:39.652Z,82
2024-02-04T01:39:46.778Z,82
2024-02-04T01:40:53.858Z,82
2024-02-04T01:42:00.413Z,82
2024-02-04T01:43:07.598Z,83
2024-02-04T01:44:14.612Z,83
2024-02-04T01:45:21.774Z,83
2024-02-04T01:46:32.017Z,83
2024-02-04T01:47:35.515Z,83
2024-02-04T01:48:42.588Z,83
2024-02-04T01:49:50.450Z,83
2024-02-04T01:50:56.772Z,83
2024-02-04T01:52:04.076Z,83
2024-02-04T01:53:10.406Z,83
2024-02-04T01:54:17.595Z,83
2024-02-04T01:55:24.657Z,83
2024-02-04T01:56:31.782Z,83
2024-02-04T01:57:39.015Z,83
2024-02-04T01:58:45.445Z,83
2024-02-04T01:59:52.552Z,83
2024-02-04T02:00:59.752Z,83
2024-02-04T02:02:06.833Z,83
2024-02-04T02:03:13.954Z,83
2024-02-04T02:04:20.553Z,83
2024-02-04T02:06:34.730Z,83
2024-02-04T02:07:41.764Z,83
2024-02-04T02:08:48.380Z,82
2024-02-04T02:09:55.654Z,82
2024-02-04T02:11:02.552Z,82
2024-02-04T02:12:09.732Z,82
2024-02-04T02:13:16.816Z,82
2024-02-04T02:14:23.355Z,82
2024-02-04T02:15:30.521Z,82
2024-02-04T02:16:37.588Z,82
2024-02-04T02:17:44.739Z,82
2024-02-04T02:18:51.897Z,82
2024-02-04T02:19:58.926Z,82
2024-02-04T02:21:05.480Z,82
2024-02-04T02:22:12.549Z,82
2024-02-04T02:23:19.741Z,82
2024-02-04T02:24:26.921Z,82
2024-02-04T02:25:33.338Z,82
2024-02-04T02:26:40.482Z,82
2024-02-04T02:27:47.662Z,82
2024-02-04T02:28:54.727Z,82
2024-02-04T02:30:01.843Z,82
2024-02-04T02:31:08.466Z,82
2024-02-04T02:32:15.571Z,82
2024-02-04T02:33:22.663Z,82
2024-02-04T02:35:36.947Z,82
2024-02-04T02:36:43.435Z,82
2024-02-04T02:37:50.454Z,82
2024-02-04T02:38:57.605Z,81
2024-02-04T02:40:05.153Z,81
2024-02-04T02:41:11.837Z,81
2024-02-04T02:42:18.948Z,81
2024-02-04T02:43:25.558Z,81
2024-02-04T02:44:32.580Z,80
2024-02-04T02:45:39.772Z,80
2024-02-04T02:46:46.940Z,80
2024-02-04T02:47:53.446Z,80
2024-02-04T02:49:00.575Z,79
2024-02-04T02:50:07.761Z,79
2024-02-04T02:51:14.709Z,79
2024-02-04T02:52:21.886Z,79
2024-02-04T02:53:29.454Z,79
2024-02-04T02:54:35.587Z,79
2024-02-04T02:55:42.628Z,79
2024-02-04T02:56:49.739Z,79
2024-02-04T02:57:56.865Z,79
2024-02-04T02:59:03.405Z,79
2024-02-04T03:00:10.495Z,79
2024-02-04T03:01:17.739Z,79
2024-02-04T03:02:24.694Z,79
2024-02-04T03:03:31.951Z,79
2024-02-04T03:04:39.021Z,79
2024-02-04T03:05:45.613Z,79
2024-02-04T03:06:52.662Z,79
2024-02-04T03:07:59.779Z,79
2024-02-04T03:09:06.848Z,79
2024-02-04T03:10:13.500Z,79
2024-02-04T03:11:20.520Z,79
2024-02-04T03:12:27.750Z,79
2024-02-04T03:13:34.731Z,80
2024-02-04T03:14:41.842Z,80
2024-02-04T03:15:48.505Z,79
2024-02-04T03:16:55.747Z,79
2024-02-04T03:18:02.699Z,79
2024-02-04T03:19:09.872Z,79
2024-02-04T03:20:16.896Z,79
2024-02-04T03:21:23.492Z,79
2024-02-04T03:22:30.554Z,79
2024-02-04T03:23:37.661Z,79
2024-02-04T03:24:44.777Z,79
2024-02-04T03:25:51.832Z,79
2024-02-04T03:26:58.993Z,79
2024-02-04T03:28:05.608Z,79
2024-02-04T03:29:12.662Z,79
2024-02-04T03:30:19.799Z,79
2024-02-04T03:31:26.894Z,79
2024-02-04T03:32:33.527Z,79
2024-02-04T03:33:40.656Z,79
2024-02-04T03:34:47.784Z,79
2024-02-04T03:35:54.767Z,79
2024-02-04T03:37:01.970Z,79
2024-02-04T03:39:15.621Z,79
2024-02-04T03:40:22.669Z,79
2024-02-04T03:41:29.848Z,79
2024-02-04T03:42:36.917Z,79
2024-02-04T03:43:43.449Z,79
2024-02-04T03:44:50.607Z,79
2024-02-04T03:45:57.759Z,79
2024-02-04T03:47:05.071Z,79
2024-02-04T03:48:11.483Z,80
2024-02-04T03:49:18.557Z,80
2024-02-04T03:50:25.607Z,80
2024-02-04T03:51:32.752Z,80
2024-02-04T03:52:39.821Z,80
2024-02-04T03:53:46.905Z,80
2024-02-04T03:54:53.619Z,80
2024-02-04T03:56:00.600Z,80
2024-02-04T03:57:08.263Z,80
2024-02-04T03:58:14.771Z,80
2024-02-04T04:01:35.717Z,81
2024-02-04T04:02:42.704Z,81
2024-02-04T04:03:49.911Z,80
2024-02-04T04:04:56.436Z,81
2024-02-04T04:06:03.724Z,81
2024-02-04T04:07:10.659Z,81
2024-02-04T04:08:17.702Z,81
2024-02-04T04:09:24.827Z,81
2024-02-04T04:10:31.939Z,81
2024-02-04T04:11:38.537Z,81
2024-02-04T04:12:45.677Z,81
2024-02-04T04:13:52.703Z,81
2024-02-04T04:14:59.849Z,81
2024-02-04T04:16:06.606Z,81
2024-02-04T04:17:13.490Z,81
2024-02-04T04:18:20.693Z,81
2024-02-04T04:19:27.828Z,81
2024-02-04T04:20:34.892Z,81
2024-02-04T04:21:41.576Z,82
2024-02-04T04:22:48.652Z,82
2024-02-04T04:23:55.642Z,82
2024-02-04T04:25:02.809Z,82
2024-02-04T04:26:09.853Z,82
2024-02-04T04:27:16.457Z,82
2024-02-04T04:28:23.575Z,82
2024-02-04T04:29:30.632Z,82
2024-02-04T04:30:37.919Z,82
2024-02-04T04:31:44.835Z,82
2024-02-04T04:32:51.502Z,82
2024-02-04T04:33:58.700Z,82
2024-02-04T04:35:05.685Z,82
2024-02-04T04:36:12.725Z,82
2024-02-04T04:37:19.906Z,82
2024-02-04T04:38:26.442Z,82
2024-02-04T04:39:33.602Z,82
2024-02-04T04:40:40.648Z,82
2024-02-04T04:42:54.896Z,83
2024-02-04T04:44:01.486Z,83
2024-02-04T04:45:08.593Z,83
2024-02-04T04:46:15.739Z,83
2024-02-04T04:47:22.754Z,83
2024-02-04T04:48:30.018Z,83
2024-02-04T04:49:36.551Z,83
2024-02-04T04:50:43.746Z,83
2024-02-04T04:51:50.776Z,82
2024-02-04T04:52:57.794Z,82
2024-02-04T04:54:04.867Z,82
2024-02-04T04:55:11.449Z,83
2024-02-04T04:56:18.650Z,83
2024-02-04T04:57:25.760Z,83
2024-02-04T04:58:32.760Z,83
2024-02-04T04:59:39.911Z,83
2024-02-04T05:00:47.712Z,83
2024-02-04T05:01:53.650Z,83
2024-02-04T05:03:00.765Z,83
2024-02-04T05:04:07.876Z,83
2024-02-04T05:05:18.088Z,83
2024-02-04T05:06:21.480Z,83
2024-02-04T05:07:28.693Z,83
2024-02-04T05:08:35.748Z,83
2024-02-04T05:09:42.881Z,83
2024-02-04T05:10:49.934Z,83
2024-02-04T05:11:56.522Z,83
2024-02-04T05:13:03.704Z,83
2024-02-04T05:14:10.722Z,83
2024-02-04T05:15:17.834Z,83
2024-02-04T05:16:24.915Z,83
2024-02-04T05:17:31.553Z,83
2024-02-04T05:18:38.755Z,83
2024-02-04T05:19:45.811Z,83
2024-02-04T05:20:52.795Z,83
2024-02-04T05:21:59.474Z,83
2024-02-04T05:23:06.544Z,83
2024-02-04T05:24:13.590Z,83
2024-02-04T05:25:20.687Z,83
2024-02-04T05:26:27.857Z,83
2024-02-04T05:27:34.973Z,83
2024-02-04T05:28:41.533Z,83
2024-02-04T05:29:48.676Z,83
2024-02-04T05:30:55.792Z,83
2024-02-04T05:32:02.805Z,83
2024-02-04T05:33:09.515Z,83
2024-02-04T05:34:16.622Z,83
2024-02-04T05:35:23.653Z,83
2024-02-04T05:36:31.876Z,82
2024-02-04T05:37:37.922Z,82
2024-02-04T05:39:51.704Z,82
2024-02-04T05:40:58.695Z,82
2024-02-04T05:42:05.840Z,82
2024-02-04T05:43:13.538Z,82
2024-02-04T05:44:19.454Z,82
2024-02-04T05:46:33.685Z,82
2024-02-04T05:47:40.874Z,82
2024-02-04T05:48:48.118Z,82
2024-02-04T05:49:55.075Z,82
2024-02-04T05:51:01.559Z,82
2024-02-04T05:52:08.811Z,82
2024-02-04T05:53:15.775Z,82
2024-02-04T05:54:22.830Z,82
2024-02-04T05:55:29.453Z,82
2024-02-04T05:56:36.593Z,82
2024-02-04T05:57:43.646Z,82
2024-02-04T05:58:50.747Z,82
2024-02-04T05:59:57.849Z,82
2024-02-04T06:01:04.593Z,82
2024-02-04T06:02:11.551Z,82
2024-02-04T06:03:18.819Z,82
2024-02-04T06:04:26.405Z,82
2024-02-04T06:05:32.876Z,82
2024-02-04T06:06:39.694Z,81
2024-02-04T06:07:46.621Z,81
2024-02-04T06:08:53.681Z,81
2024-02-04T06:10:00.939Z,81
2024-02-04T06:11:07.926Z,81
2024-02-04T06:12:14.477Z,81
2024-02-04T06:13:21.576Z,81
2024-02-04T06:14:28.702Z,81
2024-02-04T06:15:35.872Z,81
2024-02-04T06:16:42.971Z,81
2024-02-04T06:17:49.521Z,81
2024-02-04T06:18:57.038Z,81
2024-02-04T06:20:03.823Z,80
2024-02-04T06:21:10.787Z,80
2024-02-04T06:22:17.956Z,80
2024-02-04T06:23:24.448Z,80
2024-02-04T06:24:31.677Z,80
2024-02-04T06:25:38.789Z,80
2024-02-04T06:26:45.849Z,80
2024-02-04T06:27:52.991Z,80
2024-02-04T06:28:59.515Z,81
2024-02-04T06:30:09.553Z,81
2024-02-04T06:31:13.771Z,81
2024-02-04T06:32:20.819Z,81
2024-02-04T06:33:28.085Z,81
2024-02-04T06:34:34.678Z,81
2024-02-04T06:35:41.657Z,81
2024-02-04T06:36:48.815Z,81
2024-02-04T06:37:57.810Z,81
2024-02-04T06:39:02.915Z,81
2024-02-04T06:40:09.753Z,81
2024-02-04T06:41:16.675Z,81
2024-02-04T06:42:23.713Z,81
2024-02-04T06:43:32.080Z,81
2024-02-04T06:44:37.943Z,81
2024-02-04T06:45:44.557Z,81
2024-02-04T06:46:51.667Z,81
2024-02-04T06:47:58.833Z,81
2024-02-04T06:50:12.952Z,81
2024-02-04T06:51:19.571Z,81
2024-02-04T06:52:26.696Z,81
2024-02-04T06:53:33.825Z,81
2024-02-04T06:54:40.915Z,81
2024-02-04T06:55:47.481Z,81
2024-02-04T06:56:54.514Z,81
2024-02-04T06:58:01.691Z,81
2024-02-04T06:59:08.831Z,81
2024-02-04T07:00:15.870Z,81
2024-02-04T07:01:23.131Z,81
2024-02-04T07:02:29.550Z,80
2024-02-04T07:03:36.756Z,80
2024-02-04T07:04:43.988Z,80
2024-02-04T07:05:50.883Z,80
2024-02-04T07:08:05.102Z,80
2024-02-04T07:09:11.636Z,80
2024-02-04T07:10:18.837Z,79
2024-02-04T07:11:25.867Z,79
2024-02-04T07:12:32.490Z,79
2024-02-04T07:13:39.551Z,79
2024-02-04T07:14:46.679Z,79
2024-02-04T07:15:53.766Z,79
2024-02-04T07:17:00.873Z,79
2024-02-04T07:18:07.587Z,79
2024-02-04T07:19:14.713Z,79
2024-02-04T07:20:21.667Z,79
2024-02-04T07:21:28.796Z,79
2024-02-04T07:22:37.832Z,79
2024-02-04T07:23:42.977Z,79
2024-02-04T07:24:49.680Z,79
2024-02-04T07:25:56.717Z,78
2024-02-04T07:27:03.805Z,78
2024-02-04T07:28:10.926Z,78
2024-02-04T07:29:17.495Z,78
2024-02-04T07:30:24.582Z,78
2024-02-04T07:31:31.756Z,78
2024-02-04T07:32:39.583Z,78
2024-02-04T07:33:46.169Z,78
2024-02-04T07:34:52.703Z,78
2024-02-04T07:35:59.583Z,78
2024-02-04T07:37:06.907Z,78
2024-02-04T07:38:13.797Z,78
2024-02-04T07:39:20.867Z,78
2024-02-04T07:40:27.510Z,78
2024-02-04T07:41:34.712Z,78
2024-02-04T07:42:41.771Z,78
2024-02-04T07:43:48.840Z,79
2024-02-04T07:44:55.925Z,79
2024-02-04T07:46:05.364Z,79
2024-02-04T07:47:09.644Z,79
2024-02-04T07:48:16.775Z,79
2024-02-04T07:49:23.905Z,80
2024-02-04T07:50:30.880Z,80
2024-02-04T07:51:37.561Z,80
2024-02-04T07:52:45.376Z,80
2024-02-04T08:03:54.682Z,82
2024-02-04T08:05:01.946Z,82
2024-02-04T08:06:08.868Z,82
2024-02-04T08:07:16.029Z,82
2024-02-04T08:08:22.511Z,82
2024-02-04T08:09:29.684Z,82
2024-02-04T08:10:36.783Z,82
2024-02-04T08:11:44.339Z,82
2024-02-04T08:12:50.983Z,82
2024-02-04T08:13:57.556Z,82
2024-02-04T08:15:04.651Z,82
2024-02-04T08:16:11.903Z,82
2024-02-04T08:17:18.857Z,82
2024-02-04T08:18:26.000Z,82
2024-02-04T08:19:32.774Z,82
2024-02-04T08:20:39.673Z,82
2024-02-04T08:21:46.837Z,82
2024-02-04T08:22:53.851Z,83
2024-02-04T08:24:00.950Z,83
2024-02-04T08:25:07.728Z,82
2024-02-04T08:26:14.719Z,82
2024-02-04T08:27:21.753Z,83
2024-02-04T08:28:28.911Z,83
2024-02-04T08:29:35.604Z,83
2024-02-04T08:30:42.578Z,83
2024-02-04T08:31:49.688Z,83
2024-02-04T08:32:56.873Z,83
2024-02-04T08:34:04.169Z,83
2024-02-04T08:36:17.602Z,83
2024-02-04T08:37:28.396Z,83
2024-02-04T08:38:31.768Z,83
2024-02-04T08:39:38.887Z,83
2024-02-04T08:40:45.511Z,83
2024-02-04T08:41:52.563Z,83
2024-02-04T08:42:59.794Z,83
2024-02-04T08:44:06.815Z,83
2024-02-04T08:45:13.873Z,84
2024-02-04T08:46:20.515Z,84
2024-02-04T08:47:27.657Z,84
2024-02-04T08:48:34.748Z,84
2024-02-04T08:49:41.941Z,84
2024-02-04T08:50:48.921Z,84
2024-02-04T08:51:55.910Z,84
2024-02-04T08:53:02.585Z,84
2024-02-04T08:54:09.726Z,84
2024-02-04T08:55:16.853Z,84
2024-02-04T08:57:31.010Z,84
2024-02-04T08:58:37.600Z,85
2024-02-04T08:59:44.723Z,85
2024-02-04T09:00:51.897Z,85
2024-02-04T09:01:58.992Z,85
2024-02-04T09:03:05.625Z,84
2024-02-04T09:04:12.733Z,85
2024-02-04T09:05:19.731Z,85
2024-02-04T09:06:26.906Z,85
2024-02-04T09:07:34.590Z,85
2024-02-04T09:08:40.488Z,85
2024-02-04T09:09:47.795Z,85
2024-02-04T09:10:54.742Z,85
2024-02-04T09:12:01.935Z,85
2024-02-04T09:13:09.053Z,85
2024-02-04T09:14:15.599Z,85
2024-02-04T09:15:23.241Z,85
2024-02-04T09:16:31.913Z,85
2024-02-04T09:17:36.893Z,85
2024-02-04T09:18:44.092Z,85
2024-02-04T09:19:50.858Z,84
2024-02-04T09:20:57.748Z,84
2024-02-04T09:22:04.803Z,84
2024-02-04T09:23:11.810Z,84
2024-02-04T09:24:19.017Z,84
2024-02-04T09:25:25.610Z,84
2024-02-04T09:26:32.669Z,84
2024-02-04T09:27:39.924Z,84
2024-02-04T09:28:47.074Z,84
2024-02-04T09:29:53.991Z,83
2024-02-04T09:31:00.646Z,83
2024-02-04T09:32:07.760Z,83
2024-02-04T09:33:14.932Z,83
2024-02-04T09:34:22.380Z,83
2024-02-04T09:35:29.459Z,83
2024-02-04T09:36:35.825Z,83
2024-02-04T09:37:42.719Z,83
2024-02-04T09:38:49.792Z,82
2024-02-04T09:39:56.923Z,82
2024-02-04T09:41:04.088Z,82
2024-02-04T09:42:10.547Z,82
2024-02-04T09:43:17.775Z,82
2024-02-04T09:44:24.877Z,82
2024-02-04T09:45:31.918Z,82
2024-02-04T09:46:39.087Z,82
2024-02-04T09:47:45.650Z,82
2024-02-04T09:48:53.097Z,82
2024-02-04T09:50:00.203Z,82
2024-02-04T09:51:07.027Z,82
2024-02-04T09:52:14.151Z,82
2024-02-04T09:53:20.584Z,82
2024-02-04T09:54:27.770Z,82
2024-02-04T09:55:34.897Z,82
2024-02-04T09:56:41.937Z,82
2024-02-04T09:57:48.669Z,82
2024-02-04T09:58:55.622Z,82
2024-02-04T10:01:10.198Z,82
2024-02-04T10:02:21.357Z,82
2024-02-04T10:04:30.999Z,82
2024-02-04T10:05:37.910Z,82
2024-02-04T10:06:45.053Z,82
2024-02-04T10:07:51.993Z,82
2024-02-04T10:08:59.369Z,82
2024-02-04T10:10:05.751Z,82
2024-02-04T10:11:12.827Z,82
2024-02-04T10:12:19.828Z,82
2024-02-04T10:13:26.945Z,82
2024-02-04T10:14:33.510Z,82
2024-02-04T10:15:40.631Z,82
2024-02-04T10:16:47.754Z,82
2024-02-04T10:17:54.809Z,82
2024-02-04T10:19:02.529Z,82
2024-02-04T10:20:08.501Z,82
2024-02-04T10:21:15.653Z,82
2024-02-04T10:22:22.730Z,82
2024-02-04T10:23:29.845Z,82
2024-02-04T10:24:36.998Z,82
2024-02-04T10:25:43.538Z,82
2024-02-04T10:26:50.619Z,82
2024-02-04T10:27:57.744Z,82
2024-02-04T10:29:04.806Z,82
2024-02-04T10:30:11.938Z,82
2024-02-04T10:31:19.087Z,82
2024-02-04T10:32:26.193Z,82
2024-02-04T10:33:32.896Z,82
2024-02-04T10:34:39.997Z,83
2024-02-04T10:35:46.951Z,83
2024-02-04T10:36:53.545Z,83
2024-02-04T10:38:00.601Z,83
2024-02-04T10:39:07.763Z,83
2024-02-04T10:40:15.143Z,83
2024-02-04T10:41:21.915Z,83
2024-02-04T10:42:28.846Z,83
2024-02-04T10:43:35.787Z,83
2024-02-04T10:44:46.057Z,83
2024-02-04T10:45:49.896Z,83
2024-02-04T10:46:56.965Z,83
2024-02-04T10:48:03.735Z,83
2024-02-04T10:49:10.743Z,83
2024-02-04T10:50:17.775Z,83
2024-02-04T10:51:24.915Z,83
2024-02-04T10:52:31.952Z,83
2024-02-04T10:53:39.091Z,83
2024-02-04T10:54:45.730Z,82
2024-02-04T10:55:52.758Z,82
2024-02-04T10:56:59.961Z,82
2024-02-04T10:58:07.048Z,82
2024-02-04T10:59:13.560Z,82
2024-02-04T11:00:20.635Z,82
2024-02-04T11:01:27.973Z,82
2024-02-04T11:02:34.833Z,83
2024-02-04T11:04:48.617Z,83
2024-02-04T11:05:55.725Z,83
2024-02-04T11:07:02.823Z,83
2024-02-04T11:08:09.915Z,83
2024-02-04T11:09:17.019Z,83
2024-02-04T11:10:23.610Z,83
2024-02-04T11:11:30.690Z,83
2024-02-04T11:12:37.833Z,83
2024-02-04T11:13:44.849Z,83
2024-02-04T11:14:52.118Z,83
2024-02-04T11:15:58.594Z,83
2024-02-04T11:17:05.748Z,83
2024-02-04T11:18:12.852Z,83
2024-02-04T11:19:23.746Z,83
2024-02-04T11:20:27.044Z,83
2024-02-04T11:21:33.655Z,83
2024-02-04T11:22:41.198Z,83
2024-02-04T11:23:47.840Z,83
2024-02-04T11:24:54.988Z,83
2024-02-04T11:26:02.018Z,83
2024-02-04T11:27:08.639Z,83
2024-02-04T11:28:15.866Z,82
2024-02-04T11:29:22.831Z,82
2024-02-04T11:30:30.018Z,82
2024-02-04T11:32:43.637Z,82
2024-02-04T11:33:50.850Z,82
2024-02-04T11:34:57.960Z,82
2024-02-04T11:36:05.227Z,82
2024-02-04T11:37:11.565Z,82
2024-02-04T11:38:18.694Z,82
2024-02-04T11:39:25.738Z,82
2024-02-04T11:40:32.838Z,82
2024-02-04T11:41:40.085Z,82
2024-02-04T11:42:47.184Z,82
2024-02-04T11:43:55.766Z,82
2024-02-04T11:45:00.802Z,82
2024-02-04T11:46:08.116Z,81
2024-02-04T11:47:14.912Z,82
2024-02-04T11:48:21.902Z,81
2024-02-04T11:49:29.118Z,81
2024-02-04T11:50:36.113Z,81
2024-02-04T11:51:42.977Z,81
2024-02-04T11:52:49.994Z,81
2024-02-04T11:53:56.583Z,81
2024-02-04T11:55:03.705Z,80
2024-02-04T11:56:11.040Z,80
2024-02-04T11:57:17.886Z,80
2024-02-04T11:58:25.039Z,80
2024-02-04T11:59:31.515Z,79
2024-02-04T12:00:38.757Z,79
2024-02-04T12:01:45.930Z,79
2024-02-04T12:02:52.874Z,78
2024-02-04T12:04:00.015Z,77
2024-02-04T12:05:07.159Z,77
2024-02-04T12:06:13.671Z,78
2024-02-04T12:08:27.965Z,79
2024-02-04T12:09:35.066Z,79
2024-02-04T12:10:41.562Z,80
2024-02-04T12:11:48.700Z,80
2024-02-04T12:12:55.796Z,81
2024-02-04T12:14:02.911Z,81
2024-02-04T12:15:10.009Z,81
2024-02-04T12:16:16.733Z,81
2024-02-04T12:17:23.666Z,81
2024-02-04T12:18:30.871Z,81
2024-02-04T12:19:40.771Z,81
2024-02-04T12:20:44.991Z,82
2024-02-04T12:21:51.627Z,82
2024-02-04T12:22:58.699Z,82
2024-02-04T12:24:05.945Z,82
2024-02-04T12:25:12.910Z,82
2024-02-04T12:26:20.053Z,82
2024-02-04T12:27:26.579Z,82
2024-02-04T12:28:33.682Z,82
2024-02-04T12:29:40.848Z,82
2024-02-04T12:30:47.938Z,82
2024-02-04T12:31:55.004Z,82
2024-02-04T12:33:01.722Z,82
2024-02-04T12:34:08.963Z,82
2024-02-04T12:35:15.807Z,83
2024-02-04T12:36:22.900Z,83
2024-02-04T12:37:30.016Z,83
2024-02-04T12:38:36.613Z,83
2024-02-04T12:39:43.749Z,83
2024-02-04T12:40:50.851Z,83
2024-02-04T12:41:57.896Z,83
2024-02-04T12:43:06.764Z,83
2024-02-04T12:44:11.609Z,83
2024-02-04T12:45:18.788Z,83
2024-02-04T12:46:25.840Z,84
2024-02-04T12:47:32.938Z,84
2024-02-04T12:48:39.664Z,84
2024-02-04T12:49:46.915Z,84
2024-02-04T12:50:53.832Z,84
2024-02-04T12:52:00.921Z,84
2024-02-04T12:53:08.026Z,84
2024-02-04T12:54:15.066Z,84
2024-02-04T12:55:21.612Z,84
2024-02-04T12:56:31.851Z,84
2024-02-04T12:57:35.967Z,83
2024-02-04T12:58:42.930Z,83
2024-02-04T13:00:56.747Z,83
2024-02-04T13:02:03.928Z,83
2024-02-04T13:03:10.982Z,83
2024-02-04T13:04:18.119Z,83
2024-02-04T13:05:25.055Z,83
2024-02-04T13:06:32.077Z,83
2024-02-04T13:07:38.842Z,83
2024-02-04T13:08:45.833Z,83
2024-02-04T13:09:52.971Z,83
2024-02-04T13:12:06.655Z,83
2024-02-04T13:13:13.803Z,83
2024-02-04T13:14:20.861Z,83
2024-02-04T13:15:28.045Z,83
2024-02-04T13:16:34.524Z,83
2024-02-04T13:17:41.713Z,83
2024-02-04T13:18:48.793Z,83
2024-02-04T13:19:55.950Z,83
2024-02-04T13:21:03.112Z,83
2024-02-04T13:22:09.722Z,83
2024-02-04T13:23:16.705Z,83
2024-02-04T13:24:23.787Z,84
2024-02-04T13:25:31.030Z,84
2024-02-04T13:26:41.046Z,84
2024-02-04T13:27:44.633Z,84
2024-02-04T13:28:51.692Z,83
2024-02-04T13:29:59.380Z,83
2024-02-04T13:31:05.979Z,83
2024-02-04T13:32:13.050Z,83
2024-02-04T13:33:19.646Z,83
2024-02-04T13:34:26.773Z,83
2024-02-04T13:35:34.010Z,83
2024-02-04T13:36:41.012Z,83
2024-02-04T13:37:48.046Z,83
2024-02-04T13:38:54.696Z,83
2024-02-04T13:40:01.731Z,83
2024-02-04T13:41:08.824Z,83
2024-02-04T13:42:15.920Z,83
2024-02-04T13:43:23.047Z,83
2024-02-04T13:44:29.624Z,83
2024-02-04T13:45:36.741Z,83
2024-02-04T13:46:43.976Z,83
2024-02-04T13:47:50.926Z,83
2024-02-04T13:48:58.142Z,83
2024-02-04T13:50:04.879Z,83
2024-02-04T13:51:11.685Z,83
2024-02-04T13:52:18.841Z,83
2024-02-04T13:53:25.890Z,83
2024-02-04T13:54:33.032Z,83
2024-02-04T13:55:39.638Z,82
2024-02-04T13:56:46.713Z,82
2024-02-04T13:57:53.911Z,82
2024-02-04T13:59:00.874Z,83
2024-02-04T14:00:08.035Z,83
2024-02-04T14:01:14.755Z,83
2024-02-04T14:02:21.733Z,83
2024-02-04T14:03:29.079Z,83
2024-02-04T14:04:36.322Z,83
2024-02-04T14:05:43.046Z,83
2024-02-04T14:06:49.768Z,83
2024-02-04T14:07:59.740Z,83
2024-02-04T14:09:03.809Z,83
2024-02-04T14:10:11.019Z,83
2024-02-04T14:11:18.070Z,83
2024-02-04T14:12:24.826Z,83
2024-02-04T14:13:31.711Z,83
2024-02-04T14:14:38.885Z,83
2024-02-04T14:15:45.990Z,83
2024-02-04T14:16:53.031Z,83
2024-02-04T14:17:59.677Z,83
2024-02-04T14:19:06.876Z,83
2024-02-04T14:20:14.020Z,83
2024-02-04T14:21:20.934Z,83
2024-02-04T14:22:28.063Z,83
2024-02-04T14:23:34.629Z,83
2024-02-04T14:24:41.845Z,83
2024-02-04T14:25:48.851Z,83
2024-02-04T14:26:55.923Z,84
2024-02-04T14:29:09.654Z,84
2024-02-04T14:30:16.788Z,84
2024-02-04T14:31:23.887Z,84
2024-02-04T14:32:30.974Z,84
2024-02-04T14:33:38.673Z,84
2024-02-04T14:34:44.821Z,84
2024-02-04T14:35:51.744Z,84
2024-02-04T14:36:58.927Z,84
2024-02-04T14:38:06.088Z,84
2024-02-04T14:39:13.081Z,84
2024-02-04T14:40:19.744Z,84
2024-02-04T14:41:26.755Z,84
2024-02-04T14:42:33.870Z,84
2024-02-04T14:43:40.994Z,84
2024-02-04T14:44:48.120Z,84
2024-02-04T14:45:54.670Z,84
2024-02-04T14:47:01.785Z,84
2024-02-04T14:48:08.969Z,84
2024-02-04T14:49:16.035Z,84
2024-02-04T14:50:23.073Z,84
2024-02-04T14:51:29.713Z,84
2024-02-04T14:52:36.765Z,84
2024-02-04T14:53:43.863Z,84
2024-02-04T14:54:51.005Z,84
2024-02-04T14:55:57.681Z,84
2024-02-04T14:57:04.649Z,84
2024-02-04T14:58:11.860Z,84
2024-02-04T14:59:22.379Z,84
2024-02-04T15:00:26.104Z,84
2024-02-04T15:01:32.670Z,84
2024-02-04T15:02:39.667Z,84
2024-02-04T15:03:46.851Z,84
2024-02-04T15:04:53.909Z,84
2024-02-04T15:06:01.054Z,84
2024-02-04T15:07:07.765Z,84
2024-02-04T15:08:14.698Z,84
2024-02-04T15:09:21.837Z,84
2024-02-04T15:10:28.935Z,85
2024-02-04T15:11:36.066Z,85
2024-02-04T15:12:42.633Z,85
2024-02-04T15:13:49.709Z,85
2024-02-04T15:14:56.938Z,85
2024-02-04T15:16:04.097Z,85
2024-02-04T15:17:11.000Z,85
2024-02-04T15:18:17.610Z,85
2024-02-04T15:19:24.786Z,85
2024-02-04T15:20:31.878Z,85
2024-02-04T15:21:38.988Z,86
2024-02-04T15:22:46.050Z,86
2024-02-04T15:23:52.600Z,86
2024-02-04T15:24:59.752Z,86
2024-02-04T15:26:06.888Z,86
2024-02-04T15:27:13.929Z,86
2024-02-04T15:28:21.096Z,86
2024-02-04T15:29:27.606Z,86
2024-02-04T15:30:34.721Z,86
2024-02-04T15:31:41.847Z,86
2024-02-04T15:32:49.099Z,86
2024-02-04T15:33:56.180Z,86
2024-02-04T15:35:02.632Z,86
2024-02-04T15:36:09.724Z,86
2024-02-04T15:37:16.977Z,86
2024-02-04T15:38:23.905Z,86
2024-02-04T15:39:31.069Z,86
2024-02-04T15:40:38.115Z,86
2024-02-04T15:41:44.727Z,86
2024-02-04T15:42:51.943Z,86
2024-02-04T15:43:58.998Z,86
2024-02-04T15:45:06.072Z,86
2024-02-04T15:46:12.783Z,86
2024-02-04T15:47:19.764Z,86
2024-02-04T15:48:26.956Z,86
2024-02-04T15:49:34.191Z,87
2024-02-04T15:50:41.034Z,87
2024-02-04T15:51:47.919Z,87
2024-02-04T15:52:54.723Z,87
2024-02-04T15:54:01.863Z,87
2024-02-04T15:55:09.083Z,87
2024-02-04T15:57:22.658Z,87
2024-02-04T15:58:29.741Z,87
2024-02-04T15:59:36.885Z,87
2024-02-04T16:00:44.067Z,87
2024-02-04T16:01:51.189Z,87
2024-02-04T16:02:57.677Z,87
2024-02-04T16:04:04.860Z,87
2024-02-04T16:05:11.893Z,87
2024-02-04T16:06:19.089Z,87
2024-02-04T16:07:26.170Z,88
2024-02-04T16:08:32.677Z,88
2024-02-04T16:09:40.050Z,88
2024-02-04T16:10:46.871Z,88
2024-02-04T16:11:53.993Z,88
2024-02-04T16:13:01.522Z,88
2024-02-04T16:14:07.702Z,88
2024-02-04T16:15:14.801Z,88
2024-02-04T16:16:21.916Z,88
2024-02-04T16:17:30.368Z,88
2024-02-04T16:18:35.727Z,88
2024-02-04T16:19:42.752Z,88
2024-02-04T16:20:49.837Z,88
2024-02-04T16:21:56.982Z,88
2024-02-04T16:23:03.969Z,88
2024-02-04T16:24:10.599Z,88
2024-02-04T16:25:17.867Z,88
2024-02-04T16:26:24.789Z,88
2024-02-04T16:27:32.160Z,88
2024-02-04T16:28:39.006Z,88
2024-02-04T16:29:46.105Z,88
2024-02-04T16:30:52.705Z,88
2024-02-04T16:31:59.830Z,88